Race Results for
Salt Palace Criterium - State Championships
Salt Lake City, UT
(Event Information)
View By:
Criterium on 06/23/2012

Note: Ranking points are NOT upgrade points. An explanation of ranking points can be found here.


Men - Cat4/5 - Master - 35-99

 Place Points NameCity, StateTime USAC #BibTeam
1479.97Guy ROUNDY   West Jordan, UT00:40:07.70 51897  360 CA Pools /CFS Mortgage
2486.44Shawn BECKSTROM   Ogden, UT00:40:07.70 347606  366 
3492.91Patrick MORTON   Park City, UT00:40:07.80 224051  355 Revloution Cafe Rio
4499.38Tom KELLER   Boulder, CO00:40:08.10 18772  353 GS Boulder
5505.85Paul BURGER   Salt Lake City00:40:08.30 376312  367 
6512.32Justin SABA   North Salt Lake, UT00:40:08.40 179575  361 
7518.79Cade ERICKSON   Layton, UT00:40:09.60 347476  365 
8525.26Kelly PERKINS   Park City, UT00:40:09.80 375326  359 jans
9531.73Tim HANSON   South Jordan, UT00:40:10.20 81268  352 
10538.20Kevan STEED   Syracuse, UT00:40:13.50 92790  363 Chick-fil-a/Excelerator Sports
11544.67Brent OLSON   Salt Lake City, UT00:42:27.90 309228  357 
12551.14John BERNEIKE   Salt Lake City, UT00:42:51.10 56877  368 
13557.61Brad SHELTON   Murray, UT00:42:51.10 294013  362 contender
14564.08Michael MACCI   Salt Lake City, UT00:42:51.10 129769  354 Team Plan7
15570.55Michael YOUNT   Salt Lake City, UT00:42:51.20 256224  364 Canyon Bicycles -- Draper
16577.02Stephen BLOCH   Salt Lake City, UT00:42:51.20 308373  350 Canyon Bicycles - Draper
17583.49Gregory ONEIL   Salt Lake City00:42:51.20 375123  358 MiDuole
18589.96Ronnie BOUTTE   Layton, UT00:42:51.20 308066  351 COTBR
DNFTrey O'NEAL   Salt Lake City, UT 214725  356 Contender Bicycles

Men - Cat1/2/3/4/5 - Junior - 10-14

 Place Points NameCity, StateTime USAC #BibTeam
1540.00Max HIGLEY (1 - Cat5)   Kaysville, UT00:27:40.00 351056  76 X-men
2565.00Noah PUTT (1 - Cat4)   Park City, UT00:27:40.10 317194  78 Cole Sport
3590.00Charlie MACFARLANE (2 - Cat4)   Salt Lake City, UT05:42:00.00 301111  77 

Men - Cat1/2/3/4/5 - Junior - 15-18

 Place Points NameCity, StateTime USAC #BibTeam
1Jacob ALDER (1 - Cat5)   Salt Lake City, UT00:27:03.30 382011  176 Plan 7

Men - Cat1/2/3/4 - Master - 40-99

 Place Points NameCity, StateTime USAC #BibTeam
0368.44Darrell DAVIS   Salt Lake Cty, UT 8770  403 Contender Bicycles
1379.52Peter ARCHAMBAULT (1 - Cat2)   Cottonwood Heights, UT00:44:18.50 61182  419 Rocky Mountain Cycling Club
2390.60Andre GONZALEZ (2 - Cat2)   Lehi, UT00:45:10.60 91576  418 FFKR Architects Racing
3401.68Andrew LOVE (1 - Cat3)   Salt Lake City, UT00:45:12.20 56255  410 RMCC
4412.76Mitch MCBETH (3 - Cat2)   Salt Lake City, UT00:45:12.40 23158  415 Team Plan7
5423.84Mark ZIMBELMAN (4 - Cat2)   Provo, UT00:45:14.80 91557  417 Giant Cycling World p/b RMSS
6434.92Todd TAFT (2 - Cat3)   Salt Lake City, UT00:45:15.20 207596  412 Ski Utah - Marketstar Cycling
7446.00Rick BLACK (3 - Cat3)   Alpine, UT00:45:15.40 210661  400 Team plan 7
8457.08Jess DEAR (4 - Cat3)   Salt Lake City, UT00:45:16.10 212596  404 RMCC / CycleSmith
9468.16Eric MARTIN (5 - Cat2)   St. George, UT00:45:18.90 266132  411 Canyon Bicycles Race Team
10479.24Jeff CLAWSON (6 - Cat2)   Sandy, UT00:45:19.40 103430  402 Canyon Bicycles
11490.32Todd HAGEMAN   Park City, UT00:45:46.70 50257  416 Cole Sport
12501.40Brian BOUDREAU (7 - Cat2)   Salt Lake City, UT00:45:54.80 149526  401 
13512.48Alex KIM (5 - Cat3)   Salt Lake City, UT00:46:02.90 261800  408 Revolution Cafe Rio
14523.56Kevin VORE (6 - Cat3)   Farr West, UT00:46:03.60 211366  413 Ogden One
15534.64Eric YELSA (7 - Cat3)   Taylorsville, UT00:46:05.60 46090  414 The Contender
16545.72Shane DUNLEAVY (8 - Cat3)   Park City, UT00:46:08.80 253994  406 Ski Utah - Marketstar Cycling
17556.80Alex LIZARAZO (9 - Cat3)   North Ogden, UT00:46:20.40 210566  409 Roosters Biker's Edge
18567.88Richard DRESSEN (10 - Cat3)   Ogden, UT 187510  405 Ogden One
19578.96Louis RIEL (11 - Cat3)   Salt Lake City, UT 157566  420 VeloCity Cyclists/Canyon Bicyc
20590.04Jody HARRIS (8 - Cat2)   Pleasant View, UT 177562  407 Ogden One

Men - Cat1/2/3/4 - Master - 55-99

 Place Points NameCity, StateTime USAC #BibTeam
1356.39Zan TREASURE (1 - Cat2)   Ogden, UT00:40:08.80 143866  474 Bountiful Mazda Cycling Team
2374.36Norman FRYE (1 - Cat3)   Salt Lake City, UT00:40:08.80 260377  465 Ski Utah
3392.33Lorin RONNOW (2 - Cat3)   Salt Lake City, UT00:40:10.60 264904  471 FFKR Architects Racing
4410.30Dirk COWLEY   Salt Lake City, UT00:40:11.90 7974  462 FFKR Architects Racing
5428.27Jerald HUNSAKER (3 - Cat3)   Midvale, UT00:40:13.00 142960  467 Bountiful Mazda Cycling Team
6446.24Charles PALMER (4 - Cat3)   Herriman, UT00:40:15.50 156926  470 FFKR Architects Racing
7464.21Clyde DONE (5 - Cat3)   Salt Lake Cty, UT00:40:16.30 57760  463 FFKR Architects Racing
8482.18Joe BRUBAKER (6 - Cat3)   Saltlakecity, UT00:40:38.60 303618  461 Ski Utah Cycling Marketstar Ut
9500.15Bob WALKER (7 - Cat3)   Pocatello, ID00:43:52.90 48931  473 Bountiful Mazda Racing Team
10518.12John LAUCK (8 - Cat3)   Bountiful, UT 228846  468 Bountiful Mazda Cycling Team
11536.09Gary SIMMONS (9 - Cat3)   Layton, UT 199407  472 Bountiful Mazda Cycling Team
12554.06Henry EBELL (2 - Cat2)   Fairview, UT 47978  464 PORCUPINE RACING
13572.03Michael ACKLEY   Ogden, UT 81513  460 Team Rose City
14590.00Dwight HIBDON (1 - Cat4)   Park City, UT 16081  466 FFKR Architects Racing
DNSKen LOUDER (Cat3)   Salt Lake City, UT 179491  469 FFKR Architects Racing

Men - Pro/Cat 1/2

 Place Points NameCity, StateTime USAC #BibTeam
1188.88David HARWARD (1 - Cat1)   Salt Lake City, UT01:11:45.00 15338  11 Team Plan7
2201.82Tyler RIEDESEL (2 - Cat1)   Salt Lake City, UT01:11:45.60 264518  35 Canyon Bicycles-Draper
3214.76Stephen (cody) HAROLDSEN (3 - Cat1)   Salt Lake City, UT01:11:45.70 230640  31 Utah Premier-Ski Utah Cycling
4227.70Aaron OLSEN (4 - Cat1)   Woodscross, UT01:11:45.70 181440  17 FFKR Architects Racing
5240.64Peter van Dyk (1 - Pro)   Northvale, NJ01:11:45.70 365080  22 Jamis/Sutter Home
6253.58Hunter HUFFMAN (1 - Cat2)   Park City, UT01:11:45.80 338664  34 
7266.52Steve ALBRECHT (5 - Cat1)   Lehi, UT01:11:45.90 279040  Revolution Cafe Rio
8279.46Darren GOFF (6 - Cat1)   South Weber, UT01:11:46.10 301825  Simply Mac Racing p/b Bountifu
9292.40Tim MULVIHILL (2 - Cat2)   Park City, UT01:11:46.10 310119  32 CONTENDER BICYCLES
10305.34Jason CASTOR (3 - Cat2)   Salt Lake City, UT01:11:46.80 161560  Contender Bicycles
11318.28Matthew KIEL (4 - Cat2)   Indianapolis, IN01:11:46.80 274433  14 Canyon Bicycles Racing
12331.22Ryan BARRETT (7 - Cat1)   Provo, UT01:11:46.80 2708  Turbo Cycling
13344.16Pete KUENNEMANN (8 - Cat1)   Salt Lake City, UT01:11:46.90 19955  15 FFKR Architects Racing
14357.10Bryce YOUNG (5 - Cat2)   North Ogden, UT01:11:46.90 274878  29 VeloCity Cyclists/Canyon Bicyc
15370.04Eric FLYNN (6 - Cat2)   Salt Lake City, UT01:11:46.90 85427  FFKR
16Ryan LITTLEFIELD   01:11:46.90  39 Contender Bicycles
17395.92Mark DETERLINE (7 - Cat2)   Salt Lake City, UT01:11:47.00 43613  Team Plan7
18408.86Todd HAGEMAN (9 - Cat1)   Park City, UT01:11:47.10 50257  38 Cole Sport
19421.80Kevin VAN LOON (8 - Cat2)   North Salt Lake , UT01:11:47.20 184083  23 Bicycle Center
20434.74Clint CARTER (9 - Cat2)   Salt Lake City, UT01:11:48.10 220916  FFKR Architects Racing
21447.68Cortlan BROWN (10 - Cat1)   Bountiful, UT01:11:48.20 262949  ski utah marketstar
22460.62Joe WATERS (11 - Cat1)   Ogden, UT01:11:48.20 267821  27 VeloCity Cyclists/Canyon Bicyc
23473.56Brian BOUDREAU (10 - Cat2)   Salt Lake City, UT 149526  26 
24486.50Ali GOULET (11 - Cat2)   Salt Lake City, UT 13796  10 Church of the Big Ring/RealCyc
25499.44Breen LOWMAN (12 - Cat1)   Clinton, UT 50624  16 Masherz Cycling Team
26512.38Brent CANNON (12 - Cat2)   Francis, UT 114698  40 VeloCity Cyclists/Canyon Bicyc
27525.32Jon BADDLEY (13 - Cat2)   Salt Lake City, UT 178883  Contender Bicycles
28538.26Mike SOHM (13 - Cat1)   Salt Lake City 219095  21 Ski Utah Marketstar
29551.20Taylor FLETCHER (14 - Cat2)   Steamboat Springs, CO 296959  30 Cole Sport
30564.14Mitch MCBETH (15 - Cat2)   Salt Lake City, UT 23158  25 Team Plan7
31577.08MANNY CYPERS (16 - Cat2)   S. Ogden, UT 248993  36 Simply Mac Racing p/b Bountiful Bicycle
32590.02Matt ROSSMAN (17 - Cat2)   Salt Lake City, UT 195297  28 
DNSTyler HIGLEY (Cat2)   Kaysville, UT 55606  12 BOUNTIFUL MAZDA RACING TEAM
DNFRodney MENA (Cat2)   Salt Lake City, UT 51918  33 CONTENDER BICYCLES
DNFMike WILCOX (Cat1)   Salt Lake City, UT 78544  24 FFKR Architects Racing
DNFRodney SMITH (Cat1)   Salt Lake City, UT 52471  20 CONTENDER BICYCLES
DNFPatrick RAMIREZ (Cat2)   Salt Lake, UT 156874  19 Contender Bicycles
DNFBen RABNER (Cat2)   Springville, UT 57351  18 CONTENDER BICYCLES
DNFChristopher HULL (Cat1)   Salt Lake City, UT 67640  13 Contender Bicycles
DNFEric MARTIN (Cat2)   St. George, UT 266132  41 Canyon Bicycles-Draper

Men - Cat 3

 Place Points NameCity, StateTime USAC #BibTeam
1440.35Jason GOODFELLOW   Salt Lake City, UT00:44:30.10 222317  104 Canyon Bicycles Draper
2445.13Ira SORENSEN   Herriman, UT00:44:30.40 318710  111 Infinite Cycles
3449.91Chad VANSOLKEMA   Salt Lake City, UT00:44:30.60 278138  115 BICYCLE CENTER
4454.69Simon PARSONS   Sandy, UT00:44:31.60 342340  109 Revolution Cafe Rio
5459.47Thomas FOWLER   Salt Lake City, UT00:44:52.90 334296  102 Canyon Bicycles
6464.25Jeremy WARD   Orem, UT00:44:54.00 295705  125 Utah Premier-Ski Utah Cycling
7469.03Zack BUTTERFIELD   South Jordan, UT00:44:54.70 181987  100 Canyon Bicycles-Draper
8473.81Tate LITCHFIELD   Rexburg, ID00:44:54.80 255796  117 Team Big Ring-Realcyclist.com
9478.59Ben TOWERY   Clinton, UT00:44:54.80 276103  114 Chick-fil-a/Excelerator Sports
10Nathan BARNES   00:44:55.30  121 Infinte
11488.15Scott MATHEWSON   South Jordan, UT00:44:55.80 240704  119 CONTENDER BICYCLES
12492.93Brian MADSEN   Eagle Mountain00:44:57.10 342608  116 FFKR Architects Racing
13497.71Mark MILLER   Draper, UT00:44:57.20 24435  108 Canyon Bicycles
14502.49Nicholas SELLS   Clearfield, UT00:44:59.10 295868  120 Team Plan7
15507.27Eric GARDINER   Salt Lake City, UT00:45:01.40 268968  103 Revolution Cafe Rio
16512.05Nolan FINLAYSON   Riverton, UT00:45:02.50 291403  101 Team dialogue
17516.83Logan Lakota PHIPPEN   Ogden, UT 265398  110 Canyon Bicycles
18521.61Liam ODONNELL   Murray, UT 291424  123 Rocky Mountain Cycling Club
19526.39Clark MOWER   Salt Lake City, UT 182575  124 
20531.17Tyler MATSON   Sunset, UT 292523  106 Simply Mac p/b Bountiful Bicyc
21535.95Alex KIM   Salt Lake City, UT 261800  105 Revolution Cafe Rio
22540.73Timothy AKERS   Salt Lake City, UT 276173  122 Wear On Earth
23545.51Al MICHINI   Salt Lake City, UT 589  107 Ski Utah Cycling Team
24550.29John THOMAS   Park City, UT 199388  113 COTBR
25555.07David HILL   Pocatello, ID 164689  118 Idaho Cycling Enthusiasts (ICE
DNFDave SWENSEN   Riverton, UT 311872  112 Infinite Cycles
DNFRick BLACK   Alpine, UT 210661  126 Team Plan7

Men - Cat 4

 Place Points NameCity, StateTime USAC #BibTeam
1488.11Brandon BLACKWELL   Centerville, UT00:39:39.30 353576  201 Simply Mac p/b Bountiful Bicyc
2492.03Bryce OLSEN   Ogden, UT00:39:39.70 365566  216 Masherz
3495.95Don MCCLURE   Orem, UT00:39:40.20 371458  227 Infinite Cycles
4499.87Mike OBLAD   Taylorsville, UT00:39:40.80 26520  215 Dialog Racing
5503.79Edward KILBOURN   Salt Lake City, UT00:39:41.20 357519  209 RMCC Cyclesmith
6507.71Michael YOUNT   Salt Lake City, UT00:39:41.60 256224  222 Canyon Bicycles -- Draper
7511.63Jedd COX   Paradise, UT00:39:41.80 246986  228 Sonora Grill
8515.55Gwenael LAYEC   Salt Lake City, UT00:39:41.90 352626  210 
9519.47Scott BUCCAMBUSO   Salt Lake City, UT00:39:42.10 350648  203 Revolution Cafe Rio
10523.39Stephen BLOCH   Salt Lake City, UT00:39:42.10 308373  202 Canyon Bicycles - Draper
11527.31Ethan FEDOR   Park City, UT00:39:42.20 282248  223 
12531.23Mael GLON   Salt Lake City, UT00:39:43.00 360414  207 Team Plan7
13535.15Ronnie BOUTTE   Layton, UT00:39:43.80 308066  225 COTBR
14539.07Alan TAKEMORI   Lehi, UT00:39:44.20 276940  220 Team Dialogue
15542.99Bryan LEPINSKE   Salt Lake City, UT00:39:44.30 315366  211 Revolution Cafe' Rio
16546.91Kyle ANDERSON   Sandy, UT00:39:45.20 365998  200 Revolution Cafe Rio
17550.83Rick FINLAYSON   Highland, UT00:39:46.60 279124  205 Dialogue Racing
18554.75Grayson MILLARD   Salt Lake City, UT00:39:46.80 376089  212 FFKR Architects Racing
19558.67Ryan FINLAYSON   Riverton, UT00:39:47.00 296771  206 Ozone/SBR
20562.59Ben COOK   Sandy, UT00:39:47.20 303536  204 
21566.51Daniel SELLERS   Salt Lake City, UT00:39:47.50 376827  219 SaltCycle
22570.43James JI   Bountiful, UT00:39:48.20 357658  226 Unattached
23574.35Matthew NELSON   Salt Lake City, UT00:39:49.40 377967  214 SaltCycle
24578.27Kelly PERKINS   Park City, UT00:39:52.50 375326  217 jans
25582.19Tom KELLER   Boulder, CO00:39:57.30 18772  208 GS Boulder
26586.11Scott STACK   Salt Lake City, UT00:41:00.70 250724  224 Santa Ynez Valley Racing Team
27590.03Matthew THOMAS   Centerville, UT 339688  221 Revolution Cafe Rio
DNFPatrick MORTON   Park City, UT 224051  213 Revloution Cafe Rio
DNFJustin SABA   North Salt Lake, UT 179575  218 

Men - Cat 5

 Place Points NameCity, StateTime USAC #BibTeam
1540.00Paul BURGER   Salt Lake City00:26:49.40 376312  318 
2542.94Creighton LOWE   Coeur D'alene, ID00:26:49.40 313318  304 Lifetime Fitness
3545.88Tony PETERSON   North Salt Lake, UT00:26:49.50 368032  309 Bountiful Bike Club
4548.82Jason REID   Eagle Mountain, UT00:26:49.50 337100  310 Utah Premier-Ski Utah Cycling Team
5551.76Shawn BECKSTROM   Ogden, UT00:26:49.70 347606  315 
6554.70Adam EDMUNDS   Highland, UT00:26:49.80 377747  317 Infinite Cycles
7557.64Graham ABRAMS   Salt Lake City Ut00:26:53.60 375200  300 Saltcycle
8560.58Cade ERICKSON   Layton, UT00:26:58.40 347476  314 
9563.52Omar PACHECO   Salt Lake City, UT00:27:12.80 350186  307 contender bicycles
10566.46Philip SARNOFF   Salt Lake City, UT00:27:13.00 156656  312 SaltCycle
11569.40Tom MILLAR   Salt Lake City, UT00:27:15.30 369498  306 SaltCycle
12572.34Kurt SIMPSON   Salt Lake City, UT00:27:17.00 352124  313 
13575.28Robert HAIGHT   Salt Lake City00:28:21.10 88627  301 Contender Club
14578.22Scott GLOVER   Salt Lake City, UT 377812  319 
15581.16Jodie MATTINSON   American Fork, UT 269043  305 team dialogue
16584.10Samuel HALES   Provo, UT 304670  302 
17587.04Justin PEDERSEN   Salt Lake City, UT 333718  308 Rocky Mountain Cycling Club (R
18589.98Lewis ROLLINS   Salt Lake City, UT 185827  311 Contender Bicycle
DNSJohn JARRETT     303 
DNFPreston NIEDERHAUSER   Mountain Green, UT 286119  316 Simply Mac

Women - Cat1/2/3/4 - Master - 35-99

 Place Points NameCity, StateTime USAC #BibTeam
1540.00Karen CHRISTOFFERSEN (1 - Cat2)   Sandy, UT00:27:38.90 40398  440 bbc
2565.00Bev RONNOW (1 - Cat3)   Salt Lakecity, UT00:27:39.00 280271  441 FFKR/Velosport Racing
3590.00Ruth SHAPIRO (2 - Cat3)   Salt Lake City, UT00:28:37.30 179236  442 Ski Utah/Marketstar

Women - Cat1/2/3

 Place Points NameCity, StateTime USAC #BibTeam
1421.24Alison FRYE   Salt Lake City, UT00:38:20.80 247526  253 Ski Utah
2423.51Laura PATTEN (1 - Cat2)   Park City, UT00:38:36.80 143579  260 Ski Utah Marketstar Cycling
3425.78Megan HILL (2 - Cat2)   Saratoga Springs, UT00:38:37.70 311104  255 Revolution Cafe Rio
4428.05Amber WOODBURY (1 - Cat3)   West Bountiful, UT00:38:38.10 338506  262 Bountiful Mazda Cycling Team
5430.32Lori HARWARD (3 - Cat2)   Salt Lake City, UT00:38:38.60 247090  254 Ski Utah Marketstar
6Chantel OLSEN   00:38:38.60  259 Primal Utah
7434.86Kelsy BINGHAM (2 - Cat3)   South Ogden, UT00:38:38.60 311522  250 Roosters Bikers Edge
8437.13Breanne NALDER (4 - Cat2)   Murray, UT00:38:41.00 263791  258 Ski Utah Cycling
9439.40Robynn MASTERS (3 - Cat3)   Salt Lake Cty, UT00:38:42.10 22860  257 Ski Utah Cycling Marketstar Ut
10441.67Megan CLOWARD (4 - Cat3)   Draper, UT00:38:42.50 308468  252 Revolution Cafe Rio
11443.94Margaret DOUGLASS (5 - Cat3)   Salt Lake City, UT00:38:42.90 60449  264 Bountiful Mazda Cycling Team
12446.21Kemille GARVIN (5 - Cat2)   Salt Lake City, UT00:38:43.40 326298  263 Bountiful Mazda Cycling Team
13448.48Kaytie SCOTT (6 - Cat2)   Ogden, UT00:38:45.50 311329  261 Simplymac racing p/b Bountiful
14450.75Catherine KIM (6 - Cat3)   Slc, UT00:39:01.10 306142  256 Revolution Cafe Rio
15453.02Kat CARR   Salt Lake City , UT00:40:00.90 219262  251 Paceline Projects p/b Veloform

Women - Cat 4

 Place Points NameCity, StateTime USAC #BibTeam
1540.00Katherine RAGLE   Salt Lake City, UT00:27:31.80 297851  151 Salt Lake City Bicycle Company
2550.00Chelsea SMITH   Georgetown, TX00:27:31.90 361780  153 Simply Mac Racing p/b Bountifu
3560.00Sara BAKER   Sandy, UT00:27:32.20 361206  155 VeloCity Cyclists/Canyon Bicyc
4570.00Kelli WINDER   Ogden, UT00:27:32.20 313100  154 Chick-fil-a/Excelerator Sports
5580.00Heidi ROUNDY   West Jordan, UT00:27:33.70 371634  152 CA Pools /CFS Mortgage
6590.00Juel IVERSON   Salt Lake City, UT00:27:34.50 211994  150 Canyon Bicycles

Report missing or incorrect license numbers

Volkswagen
SpyBonk BreakerSierra NevadaShimanoUSACDF
UCI USA Cycling is the official governing body for all disciplines of competitive cycling in the United States. The 501c3, membership-based organization aims both to achieve sustained success in international cycling competition and to grow competitive cycling in America while delivering an exceptional customer experience.
View Children's Online Privacy Protection Policy
US Olympic Committee